Terminal Aerodrome Forecast
Issued by NWS

Home | Current Version | Previous Version | Graphics & Text | Print | Product List | Glossary On
Versions: 1 2 3 4 5 6 7 8 9 10 11 12 13 14 15 16 17 18 19 20 21 22 23 24 25 26 27 28 29 30 31 32 33 34
000
FTUS43 KGRB 161726
TAFATW
TAF
KATW 161726Z 1618/1718 VRB03KT P6SM OVC100
     FM162200 11005KT P6SM -SN SCT015 OVC040
      TEMPO 1622/1701 3SM -FZRAPL BR BKN015
     FM170100 08005KT 3SM -FZRAPL BR OVC006
     FM170400 05008KT 1 1/2SM -FZRAPL BR OVC005
     FM170800 03009KT 1 1/2SM -FZRA BR OVC004
     FM171500 01009KT 1 1/2SM -FZRA BR OVC003=

USA.gov is the U.S. government's official web portal to all federal, state and local government web resources and services.